VE85 weather

Bentayan Airport
Ujjain, Madhya Pradesh, India

Public forecast

Using degrees Celsius for public forecast. Weather courtesy of forecast.io.

Closest aviation weather report (METAR) to Bentayan Airport

Closest report is Devi Ahilyabai Holkar Airport, 22.9 nm (42.4 km) SSW. Retrieved 2020/02/19 13:00 UTC (3 minutes ago):

VAID 191300Z 00000KT 8000 NSC 27/12 Q1013 NOSIG

Closest aviation forecast (TAF) to Bentayan Airport

Forecast is more than 12 hours old.

Closest forecast is Devi Ahilyabai Holkar Airport, 22.9 nm (42.4 km) SSW. Retrieved 2020/01/27 21:00 UTC (23 days ago):

TAF VAID 262000Z 2621/2706 07003KT 5000 HZ NSC BECMG 2701/2703 14005KT 4000 HZ NSC